Time;durP1;ratioP1;P1;durP2;ratioP2;P2;SDS_P1;SDS_P2;PMS_P1;PMS_P2;Temp;Humidity;BMP_temperature;BMP_pressure;BME280_temperature;BME280_humidity;BME280_pressure;Samples;Min_cycle;Max_cycle;Signal;HPM_P1;HPM_P2
2021/12/21 00:01:53;;;;;;;;;;;2.60;92.40;;;;;;5087584;28;19924;-70
2021/12/21 00:04:18;;;;;;;;;;;2.60;92.70;;;;;;5090829;28;19913;-70
2021/12/21 00:06:44;;;;;;;;;;;2.60;92.40;;;;;;5083957;28;19912;-70
2021/12/21 00:09:09;;;;;;;;;;;2.60;92.40;;;;;;5091456;28;20364;-70
2021/12/21 00:11:35;;;;;;;;;;;2.60;92.40;;;;;;5087094;28;20242;-70
2021/12/21 00:16:59;;;;;;;;;;;2.50;92.40;;;;;;5094271;28;19926;-70
2021/12/21 00:19:43;;;;;;;;;;;2.50;92.30;;;;;;5094196;28;19916;-70
2021/12/21 00:22:31;;;;;;;;;;;2.50;92.40;;;;;;5096998;28;19993;-71
2021/12/21 00:24:54;;;;;;;;;;;2.50;92.30;;;;;;5096937;28;19957;-70
2021/12/21 00:27:21;;;;;;;;;;;2.50;92.30;;;;;;5095489;28;19912;-70
2021/12/21 00:29:46;;;;;;;;;;;2.50;92.30;;;;;;5105090;28;19999;-71
2021/12/21 00:32:12;;;;;;;;;;;2.50;92.30;;;;;;5093664;28;21431;-70
2021/12/21 00:34:39;;;;;;;;;;;2.50;92.30;;;;;;5103084;28;19915;-70
2021/12/21 00:37:05;;;;;;;;;;;2.40;92.20;;;;;;5090643;28;19970;-70
2021/12/21 00:39:30;;;;;;;;;;;2.50;92.20;;;;;;5098143;28;19923;-70
2021/12/21 00:41:56;;;;;;;;;;;2.40;92.20;;;;;;5096215;28;19920;-71
2021/12/21 00:44:21;;;;;;;;;;;2.40;92.20;;;;;;5099079;28;19916;-70
2021/12/21 00:46:47;;;;;;;;;;;2.40;92.20;;;;;;5091141;28;19922;-70
2021/12/21 00:49:16;;;;;;;;;;;2.40;92.20;;;;;;5096108;28;19919;-70
2021/12/21 00:51:43;;;;;;;;;;;2.40;92.20;;;;;;5097528;28;19919;-70
2021/12/21 00:54:09;;;;;;;;;;;2.40;92.20;;;;;;5091469;28;19915;-70
2021/12/21 00:56:34;;;;;;;;;;;2.40;92.40;;;;;;5097161;28;19915;-71
2021/12/21 00:59:00;;;;;;;;;;;2.40;92.10;;;;;;5090509;28;20272;-70
2021/12/21 01:01:25;;;;;;;;;;;2.40;92.10;;;;;;5095898;28;19968;-71
2021/12/21 01:03:53;;;;;;;;;;;2.40;92.10;;;;;;5091653;28;20356;-70
2021/12/21 01:06:38;;;;;;;;;;;2.30;92.00;;;;;;5094031;28;20191;-71
2021/12/21 01:09:12;;;;;;;;;;;;;;;;;;;;;
2021/12/21 01:11:37;;;;;;;;;;;2.30;92.00;;;;;;5091356;28;19991;-70
2021/12/21 01:16:45;;;;;;;;;;;2.30;92.00;;;;;;5088753;28;19927;-70
2021/12/21 01:19:17;;;;;;;;;;;;;;;;;;;;;
2021/12/21 01:21:43;;;;;;;;;;;2.30;91.90;;;;;;5091483;28;19931;-70
2021/12/21 01:24:27;;;;;;;;;;;;;;;;;;;;;
2021/12/21 01:29:18;;;;;;;;;;;2.30;91.90;;;;;;5093321;28;19918;-70
2021/12/21 01:37:00;;;;;;;;;;;2.20;91.80;;;;;;5088916;28;20493;-71
2021/12/21 01:42:21;;;;;;;;;;;2.20;91.80;;;;;;5088116;28;20292;-70
2021/12/21 01:50:15;;;;;;;;;;;2.20;91.80;;;;;;5075524;28;19914;-71
2021/12/21 01:52:40;;;;;;;;;;;2.20;91.80;;;;;;5090112;28;20330;-70
2021/12/21 01:55:06;;;;;;;;;;;2.20;91.80;;;;;;5083990;28;19913;-71
2021/12/21 01:57:32;;;;;;;;;;;2.20;91.80;;;;;;5088026;28;19916;-70
2021/12/21 01:59:57;;;;;;;;;;;2.10;91.80;;;;;;5075318;28;20024;-70
2021/12/21 02:02:23;;;;;;;;;;;2.10;91.70;;;;;;5092164;28;20006;-70
2021/12/21 02:04:48;;;;;;;;;;;2.10;91.70;;;;;;5093275;28;19940;-70
2021/12/21 02:07:14;;;;;;;;;;;2.10;91.70;;;;;;5090852;28;19958;-70
2021/12/21 02:09:40;;;;;;;;;;;2.10;91.70;;;;;;5097648;28;19916;-70
2021/12/21 02:12:09;;;;;;;;;;;2.10;91.70;;;;;;5091569;28;20038;-70
2021/12/21 02:14:34;;;;;;;;;;;2.10;91.70;;;;;;5094292;28;19969;-71
2021/12/21 02:17:42;;;;;;;;;;;2.10;91.70;;;;;;5090640;28;20323;-70
2021/12/21 02:20:14;;;;;;;;;;;2.10;91.60;;;;;;5101264;28;19913;-70
2021/12/21 02:22:46;;;;;;;;;;;2.10;91.60;;;;;;5088552;28;20302;-70
2021/12/21 02:28:23;;;;;;;;;;;2.10;91.60;;;;;;5084063;28;19913;-70
2021/12/21 02:30:52;;;;;;;;;;;2.00;91.60;;;;;;5087016;28;19943;-70
2021/12/21 02:33:18;;;;;;;;;;;2.10;91.60;;;;;;5090065;28;19934;-70
2021/12/21 02:35:44;;;;;;;;;;;2.10;91.60;;;;;;5099440;28;19912;-70
2021/12/21 02:38:09;;;;;;;;;;;2.10;91.60;;;;;;5081997;28;20355;-70
2021/12/21 02:40:35;;;;;;;;;;;2.00;91.60;;;;;;5094039;28;20323;-70
2021/12/21 02:43:01;;;;;;;;;;;2.00;91.50;;;;;;5105449;27;20385;-70
2021/12/21 02:45:27;;;;;;;;;;;2.00;91.60;;;;;;5092502;28;19916;-70
2021/12/21 02:47:53;;;;;;;;;;;2.00;91.50;;;;;;5095787;28;19954;-70
2021/12/21 02:50:18;;;;;;;;;;;2.00;91.50;;;;;;5100267;28;20365;-70
2021/12/21 02:52:46;;;;;;;;;;;2.00;91.40;;;;;;5091028;28;20525;-70
2021/12/21 02:55:12;;;;;;;;;;;2.00;91.50;;;;;;5092462;28;19920;-70
2021/12/21 02:57:38;;;;;;;;;;;2.00;91.60;;;;;;5093504;28;19953;-70
2021/12/21 03:00:04;;;;;;;;;;;1.90;91.50;;;;;;5100374;28;19916;-70
2021/12/21 03:02:31;;;;;;;;;;;1.90;91.40;;;;;;5091199;28;19912;-70
2021/12/21 03:04:57;;;;;;;;;;;1.90;91.50;;;;;;5086079;28;19994;-70
2021/12/21 03:10:11;;;;;;;;;;;1.90;91.40;;;;;;5091640;28;19911;-70
2021/12/21 03:15:03;;;;;;;;;;;1.90;91.40;;;;;;5109018;27;19933;-70
2021/12/21 03:17:28;;;;;;;;;;;1.90;91.40;;;;;;5097965;28;19936;-70
2021/12/21 03:19:53;;;;;;;;;;;1.90;91.30;;;;;;5100094;28;19919;-70
2021/12/21 03:22:19;;;;;;;;;;;1.90;91.30;;;;;;5097698;27;19916;-70
2021/12/21 03:24:45;;;;;;;;;;;1.90;91.30;;;;;;5095483;28;19916;-70
2021/12/21 03:27:11;;;;;;;;;;;1.90;91.30;;;;;;5094586;28;19944;-70
2021/12/21 03:29:36;;;;;;;;;;;1.90;91.30;;;;;;5081128;28;19927;-70
2021/12/21 03:32:02;;;;;;;;;;;1.80;91.20;;;;;;5095738;28;19931;-70
2021/12/21 03:34:28;;;;;;;;;;;1.80;91.20;;;;;;5092166;28;19955;-70
2021/12/21 03:36:53;;;;;;;;;;;1.90;91.30;;;;;;5096056;28;19916;-70
2021/12/21 03:39:20;;;;;;;;;;;1.80;91.20;;;;;;5079997;28;19919;-70
2021/12/21 03:41:48;;;;;;;;;;;1.80;91.20;;;;;;5096152;28;19952;-70
2021/12/21 03:44:15;;;;;;;;;;;1.80;91.20;;;;;;5091730;28;19923;-70
2021/12/21 03:46:46;;;;;;;;;;;1.80;91.20;;;;;;5093815;28;19924;-70
2021/12/21 03:51:56;;;;;;;;;;;1.80;91.20;;;;;;5096833;28;19919;-70
2021/12/21 03:54:22;;;;;;;;;;;1.80;91.20;;;;;;5102048;27;19916;-70
2021/12/21 03:56:50;;;;;;;;;;;1.80;91.20;;;;;;5093344;28;19919;-70
2021/12/21 03:59:18;;;;;;;;;;;1.80;91.20;;;;;;5099731;28;20224;-70
2021/12/21 04:01:43;;;;;;;;;;;1.80;91.20;;;;;;5098061;28;19963;-70
2021/12/21 04:04:09;;;;;;;;;;;1.80;91.10;;;;;;5128367;27;19962;-70
2021/12/21 04:06:35;;;;;;;;;;;1.80;91.10;;;;;;5094474;27;19998;-70
2021/12/21 04:09:02;;;;;;;;;;;1.80;91.10;;;;;;5111141;28;20323;-70
2021/12/21 04:11:28;;;;;;;;;;;1.70;91.10;;;;;;5110243;27;19923;-70
2021/12/21 04:13:53;;;;;;;;;;;1.70;91.10;;;;;;5099645;28;19908;-70
2021/12/21 04:16:19;;;;;;;;;;;1.70;91.10;;;;;;5097354;28;19916;-70
2021/12/21 04:18:44;;;;;;;;;;;1.70;91.10;;;;;;5107664;28;20007;-70
2021/12/21 04:21:12;;;;;;;;;;;1.70;91.10;;;;;;5090562;28;19927;-70
2021/12/21 04:23:38;;;;;;;;;;;1.70;91.20;;;;;;5098160;28;20365;-70
2021/12/21 04:26:04;;;;;;;;;;;1.70;91.10;;;;;;5093923;28;20468;-70
2021/12/21 04:28:29;;;;;;;;;;;1.70;91.10;;;;;;5100689;28;19923;-70
2021/12/21 04:30:55;;;;;;;;;;;1.70;91.10;;;;;;5091809;28;19912;-70
2021/12/21 04:33:20;;;;;;;;;;;1.60;91.10;;;;;;5094525;28;19915;-70
2021/12/21 04:35:46;;;;;;;;;;;1.60;91.10;;;;;;5092390;28;19923;-70
2021/12/21 04:38:26;;;;;;;;;;;1.70;91.00;;;;;;5090002;28;20365;-70
2021/12/21 04:40:57;;;;;;;;;;;1.60;90.90;;;;;;5089848;28;20337;-70
2021/12/21 04:43:23;;;;;;;;;;;1.60;91.00;;;;;;5093617;28;19920;-70
2021/12/21 04:45:49;;;;;;;;;;;1.60;91.00;;;;;;5090603;28;19930;-70
2021/12/21 04:48:14;;;;;;;;;;;1.60;91.00;;;;;;5094987;28;19926;-70
2021/12/21 04:50:40;;;;;;;;;;;1.60;91.00;;;;;;5093797;28;20361;-70
2021/12/21 04:53:06;;;;;;;;;;;1.60;91.00;;;;;;5092615;28;19958;-70
2021/12/21 04:55:31;;;;;;;;;;;1.70;91.00;;;;;;5092470;28;19912;-71
2021/12/21 04:57:57;;;;;;;;;;;1.60;91.00;;;;;;5078208;28;20497;-70
2021/12/21 05:00:23;;;;;;;;;;;1.60;90.90;;;;;;5088118;28;20011;-70
2021/12/21 05:02:48;;;;;;;;;;;1.60;91.00;;;;;;5094393;28;19969;-70
2021/12/21 05:05:14;;;;;;;;;;;1.60;90.90;;;;;;5091023;28;19916;-70
2021/12/21 05:07:42;;;;;;;;;;;1.60;91.00;;;;;;5092712;28;19951;-70
2021/12/21 05:10:10;;;;;;;;;;;1.60;90.90;;;;;;5089169;28;19989;-70
2021/12/21 05:12:36;;;;;;;;;;;1.50;91.00;;;;;;5093421;28;19908;-71
2021/12/21 05:15:03;;;;;;;;;;;1.50;91.00;;;;;;5088709;28;20262;-70
2021/12/21 05:17:29;;;;;;;;;;;1.60;91.00;;;;;;5090429;28;19908;-70
2021/12/21 05:19:54;;;;;;;;;;;1.50;91.00;;;;;;5085482;28;19963;-70
2021/12/21 05:22:20;;;;;;;;;;;1.60;91.00;;;;;;5093848;28;19935;-70
2021/12/21 05:24:45;;;;;;;;;;;1.60;91.00;;;;;;5090843;28;19919;-70
2021/12/21 05:27:11;;;;;;;;;;;1.50;90.90;;;;;;5094017;28;19915;-71
2021/12/21 05:29:36;;;;;;;;;;;1.50;91.00;;;;;;5092678;28;19997;-70
2021/12/21 05:32:03;;;;;;;;;;;1.50;91.10;;;;;;5089358;28;19912;-70
2021/12/21 05:34:29;;;;;;;;;;;1.50;91.10;;;;;;5090874;28;19958;-70
2021/12/21 05:36:54;;;;;;;;;;;1.50;91.20;;;;;;5087689;28;20277;-70
2021/12/21 05:39:24;;;;;;;;;;;1.50;91.10;;;;;;5092719;28;19919;-70
2021/12/21 05:41:51;;;;;;;;;;;1.50;91.10;;;;;;5088851;28;20006;-70
2021/12/21 05:44:20;;;;;;;;;;;1.50;91.10;;;;;;5092186;28;20017;-70
2021/12/21 05:46:47;;;;;;;;;;;1.50;91.10;;;;;;5090954;28;19912;-70
2021/12/21 05:49:12;;;;;;;;;;;1.50;91.10;;;;;;5095047;28;20237;-70
2021/12/21 05:51:38;;;;;;;;;;;1.50;91.00;;;;;;5089579;28;19911;-70
2021/12/21 05:54:03;;;;;;;;;;;1.50;91.00;;;;;;5092015;28;19980;-70
2021/12/21 05:56:29;;;;;;;;;;;1.50;91.10;;;;;;5093549;28;20356;-70
2021/12/21 05:58:55;;;;;;;;;;;1.50;91.00;;;;;;5091943;28;19912;-70
2021/12/21 06:01:20;;;;;;;;;;;1.50;91.00;;;;;;5092707;28;19919;-70
2021/12/21 06:03:46;;;;;;;;;;;1.50;91.00;;;;;;5094928;28;19916;-70
2021/12/21 06:06:14;;;;;;;;;;;1.50;91.00;;;;;;5089406;28;19916;-70
2021/12/21 06:08:41;;;;;;;;;;;1.50;91.00;;;;;;5101321;28;19983;-70
2021/12/21 06:11:07;;;;;;;;;;;1.50;91.00;;;;;;5087561;28;19918;-70
2021/12/21 06:22:44;;;;;;;;;;;;;;;;;;;;;
2021/12/21 06:25:34;;;;;;;;;;;1.40;90.90;;;;;;5095906;28;19965;-70
2021/12/21 06:27:16;;;;;;;;;;;1.40;91.00;;;;;;5080703;28;19912;-70
2021/12/21 06:29:42;;;;;;;;;;;1.40;91.00;;;;;;5089583;28;19927;-70
2021/12/21 06:32:08;;;;;;;;;;;1.40;90.90;;;;;;5092000;28;19922;-70
2021/12/21 06:34:33;;;;;;;;;;;1.40;90.80;;;;;;5091868;28;19917;-70
2021/12/21 06:36:59;;;;;;;;;;;1.40;90.80;;;;;;5091964;28;20395;-70
2021/12/21 06:39:26;;;;;;;;;;;1.40;90.90;;;;;;5089837;28;19991;-71
2021/12/21 06:41:52;;;;;;;;;;;1.40;90.90;;;;;;5090969;28;19943;-71
2021/12/21 06:44:17;;;;;;;;;;;1.30;90.90;;;;;;5087198;28;20296;-70
2021/12/21 06:46:52;;;;;;;;;;;1.30;90.80;;;;;;5082567;28;19913;-70
2021/12/21 06:52:03;;;;;;;;;;;1.30;90.90;;;;;;5091583;28;19954;-70
2021/12/21 06:54:28;;;;;;;;;;;1.30;90.80;;;;;;5090686;28;19912;-70
2021/12/21 06:56:54;;;;;;;;;;;1.30;90.90;;;;;;5089647;28;19915;-71
2021/12/21 06:59:19;;;;;;;;;;;1.30;90.90;;;;;;5088989;28;19925;-71
2021/12/21 07:01:48;;;;;;;;;;;1.30;90.90;;;;;;5082343;28;19923;-70
2021/12/21 07:04:14;;;;;;;;;;;1.30;90.80;;;;;;5082537;28;19923;-71
2021/12/21 07:06:41;;;;;;;;;;;1.30;90.80;;;;;;5090143;28;19913;-70
2021/12/21 07:09:21;;;;;;;;;;;1.30;90.90;;;;;;5085117;28;19912;-70
2021/12/21 07:11:55;;;;;;;;;;;1.30;90.90;;;;;;5078884;28;19935;-70
2021/12/21 07:19:49;;;;;;;;;;;1.20;90.80;;;;;;5085972;28;19988;-70
2021/12/21 07:22:15;;;;;;;;;;;1.20;90.80;;;;;;5074777;28;20320;-70
2021/12/21 07:24:41;;;;;;;;;;;1.30;90.80;;;;;;5087443;28;19912;-70
2021/12/21 07:27:06;;;;;;;;;;;1.20;90.80;;;;;;5080022;28;19909;-70
2021/12/21 07:29:32;;;;;;;;;;;1.20;90.70;;;;;;5087446;28;19911;-70
2021/12/21 07:31:57;;;;;;;;;;;1.20;90.80;;;;;;5087949;28;19912;-70
2021/12/21 07:34:23;;;;;;;;;;;1.20;90.80;;;;;;5086837;28;20011;-70
2021/12/21 07:36:48;;;;;;;;;;;1.20;90.80;;;;;;5089798;28;19916;-70
2021/12/21 07:39:17;;;;;;;;;;;1.20;90.80;;;;;;5093195;28;20535;-71
2021/12/21 07:41:43;;;;;;;;;;;1.20;90.90;;;;;;5091227;28;19917;-71
2021/12/21 07:44:09;;;;;;;;;;;1.20;90.90;;;;;;5089040;28;19942;-71
2021/12/21 07:46:35;;;;;;;;;;;1.20;90.80;;;;;;5093601;28;19958;-70
2021/12/21 07:49:01;;;;;;;;;;;1.20;90.80;;;;;;5084350;28;19937;-71
2021/12/21 07:51:27;;;;;;;;;;;1.20;90.80;;;;;;5098124;28;20585;-71
2021/12/21 07:53:52;;;;;;;;;;;1.20;90.80;;;;;;5088902;28;19950;-71
2021/12/21 07:56:18;;;;;;;;;;;1.20;90.80;;;;;;5100190;28;19947;-71
2021/12/21 07:58:44;;;;;;;;;;;1.20;90.80;;;;;;5095023;28;19913;-70
2021/12/21 08:01:10;;;;;;;;;;;1.20;90.70;;;;;;5099501;28;19918;-70
2021/12/21 08:03:36;;;;;;;;;;;1.20;90.80;;;;;;5088720;28;19940;-70
2021/12/21 08:06:03;;;;;;;;;;;1.20;90.80;;;;;;5098757;28;19955;-71
2021/12/21 08:08:30;;;;;;;;;;;1.20;90.80;;;;;;5103318;28;19916;-70
2021/12/21 08:11:29;;;;;;;;;;;1.20;90.70;;;;;;5098577;28;19911;-71
2021/12/21 08:13:43;;;;;;;;;;;1.20;90.80;;;;;;5101209;28;19918;-70
2021/12/21 08:16:09;;;;;;;;;;;1.20;90.90;;;;;;5100768;28;20328;-71
2021/12/21 08:18:35;;;;;;;;;;;1.20;90.80;;;;;;5094703;27;19916;-70
2021/12/21 08:21:01;;;;;;;;;;;1.20;90.80;;;;;;5093519;28;19915;-70
2021/12/21 08:23:26;;;;;;;;;;;1.20;90.70;;;;;;5095973;28;20261;-70
2021/12/21 08:25:54;;;;;;;;;;;1.20;90.80;;;;;;5101713;28;19907;-70
2021/12/21 08:28:19;;;;;;;;;;;1.20;90.80;;;;;;5100014;28;19920;-70
2021/12/21 08:30:45;;;;;;;;;;;1.20;90.70;;;;;;5093950;28;20596;-70
2021/12/21 08:33:10;;;;;;;;;;;1.20;90.80;;;;;;5090742;28;19963;-70
2021/12/21 08:35:36;;;;;;;;;;;1.20;90.80;;;;;;5086261;28;20329;-71
2021/12/21 08:38:06;;;;;;;;;;;1.20;90.80;;;;;;5085006;28;19945;-70
2021/12/21 08:40:39;;;;;;;;;;;1.20;91.00;;;;;;5092048;28;19919;-71
2021/12/21 08:43:05;;;;;;;;;;;1.20;91.00;;;;;;5091553;28;19939;-70
2021/12/21 08:45:31;;;;;;;;;;;1.20;90.80;;;;;;5085843;28;19936;-70
2021/12/21 08:47:59;;;;;;;;;;;1.20;90.80;;;;;;5080249;28;20010;-70
2021/12/21 08:50:25;;;;;;;;;;;1.30;90.80;;;;;;5092162;28;19912;-70
2021/12/21 08:52:50;;;;;;;;;;;1.20;90.70;;;;;;5092316;28;19957;-70
2021/12/21 08:55:17;;;;;;;;;;;1.20;90.80;;;;;;5092886;28;20268;-70
2021/12/21 08:57:43;;;;;;;;;;;1.20;90.80;;;;;;5094349;28;19912;-70
2021/12/21 09:00:09;;;;;;;;;;;1.30;90.70;;;;;;5091260;28;19916;-70
2021/12/21 09:02:36;;;;;;;;;;;1.20;90.80;;;;;;5086969;27;20003;-70
2021/12/21 09:05:07;;;;;;;;;;;1.20;90.90;;;;;;5089193;28;20372;-70
2021/12/21 09:07:32;;;;;;;;;;;1.20;90.90;;;;;;5085437;28;19950;-70
2021/12/21 09:09:58;;;;;;;;;;;1.20;91.00;;;;;;5088314;28;19949;-70
2021/12/21 09:12:23;;;;;;;;;;;1.30;90.90;;;;;;5078256;28;19920;-71
2021/12/21 09:14:49;;;;;;;;;;;1.30;90.90;;;;;;5090422;28;19955;-70
2021/12/21 09:17:14;;;;;;;;;;;1.20;90.90;;;;;;5078402;28;19927;-70
2021/12/21 09:19:40;;;;;;;;;;;1.30;90.90;;;;;;5091808;28;19919;-70
2021/12/21 09:22:05;;;;;;;;;;;1.20;91.00;;;;;;5085137;28;20603;-70
2021/12/21 09:24:31;;;;;;;;;;;1.30;91.00;;;;;;5091492;28;19920;-70
2021/12/21 09:26:56;;;;;;;;;;;1.30;91.00;;;;;;5092761;28;20362;-70
2021/12/21 09:29:22;;;;;;;;;;;1.30;91.00;;;;;;5092090;28;20482;-70
2021/12/21 09:31:48;;;;;;;;;;;1.30;91.00;;;;;;5097572;28;19950;-70
2021/12/21 09:34:13;;;;;;;;;;;1.30;91.00;;;;;;5090967;28;19916;-70
2021/12/21 09:36:39;;;;;;;;;;;1.30;91.00;;;;;;5090452;28;20049;-70
2021/12/21 09:39:04;;;;;;;;;;;1.30;91.20;;;;;;5092446;28;19981;-70
2021/12/21 09:41:30;;;;;;;;;;;1.30;91.10;;;;;;5098078;28;21193;-70
2021/12/21 09:43:55;;;;;;;;;;;1.30;91.10;;;;;;5091848;28;19932;-70
2021/12/21 09:46:21;;;;;;;;;;;1.40;91.20;;;;;;5093063;28;19943;-70
2021/12/21 09:48:46;;;;;;;;;;;1.30;91.10;;;;;;5090830;28;19970;-70
2021/12/21 09:51:12;;;;;;;;;;;1.30;91.10;;;;;;5102452;28;19911;-70
2021/12/21 09:53:37;;;;;;;;;;;1.40;91.20;;;;;;5086983;28;19912;-70
2021/12/21 09:56:05;;;;;;;;;;;1.40;91.20;;;;;;5088574;28;20211;-70
2021/12/21 09:58:32;;;;;;;;;;;1.40;91.20;;;;;;5093663;28;21183;-70
2021/12/21 10:00:57;;;;;;;;;;;1.40;91.20;;;;;;5096946;28;19915;-70
2021/12/21 10:03:23;;;;;;;;;;;1.40;91.20;;;;;;5093944;28;19939;-70
2021/12/21 10:05:48;;;;;;;;;;;1.40;91.30;;;;;;5091665;28;19912;-70
2021/12/21 10:08:16;;;;;;;;;;;1.40;91.20;;;;;;5094881;28;20250;-70
2021/12/21 10:10:43;;;;;;;;;;;1.40;91.40;;;;;;5102214;28;20343;-70
2021/12/21 10:13:11;;;;;;;;;;;1.50;91.30;;;;;;5091740;28;19923;-70
2021/12/21 10:15:38;;;;;;;;;;;1.50;91.30;;;;;;5102762;28;19912;-70
2021/12/21 10:18:04;;;;;;;;;;;1.40;91.40;;;;;;5094595;28;20501;-70
2021/12/21 10:20:31;;;;;;;;;;;1.50;91.40;;;;;;5102690;28;19911;-70
2021/12/21 10:22:57;;;;;;;;;;;1.50;91.40;;;;;;5094759;27;20418;-70
2021/12/21 10:25:23;;;;;;;;;;;1.50;91.40;;;;;;5103234;28;19962;-70
2021/12/21 10:27:49;;;;;;;;;;;1.50;91.40;;;;;;5127234;27;19928;-70
2021/12/21 10:30:14;;;;;;;;;;;1.50;91.40;;;;;;5101530;28;19916;-70
2021/12/21 10:32:48;;;;;;;;;;;1.50;91.40;;;;;;5090860;28;19920;-70
2021/12/21 10:35:14;;;;;;;;;;;1.50;91.50;;;;;;5098069;28;19908;-70
2021/12/21 10:37:40;;;;;;;;;;;1.50;91.50;;;;;;5094167;28;19923;-70
2021/12/21 10:40:09;;;;;;;;;;;1.60;91.70;;;;;;5098517;28;19912;-70
2021/12/21 10:42:45;;;;;;;;;;;1.60;91.60;;;;;;5088484;28;21019;-71
2021/12/21 10:45:10;;;;;;;;;;;1.60;91.60;;;;;;5099650;28;19916;-70
2021/12/21 10:47:36;;;;;;;;;;;1.50;91.70;;;;;;5094700;28;20429;-70
2021/12/21 10:50:01;;;;;;;;;;;1.60;91.60;;;;;;5091703;28;19908;-70
2021/12/21 10:52:27;;;;;;;;;;;1.60;91.60;;;;;;5088700;28;19912;-70
2021/12/21 10:54:52;;;;;;;;;;;1.70;91.70;;;;;;5094716;28;19953;-70
2021/12/21 10:57:23;;;;;;;;;;;1.70;91.90;;;;;;5098368;28;20014;-70
2021/12/21 10:59:50;;;;;;;;;;;1.70;91.70;;;;;;5090412;28;19912;-70
2021/12/21 11:02:21;;;;;;;;;;;1.70;91.70;;;;;;5097251;28;19922;-70
2021/12/21 11:04:49;;;;;;;;;;;1.70;91.80;;;;;;5080218;28;19913;-71
2021/12/21 11:09:56;;;;;;;;;;;1.70;91.80;;;;;;5086946;28;20415;-70
2021/12/21 11:12:24;;;;;;;;;;;1.70;91.80;;;;;;5082459;28;19912;-70
2021/12/21 11:14:50;;;;;;;;;;;1.70;91.90;;;;;;5083750;28;20350;-70
2021/12/21 11:17:16;;;;;;;;;;;1.70;92.00;;;;;;5083109;28;20467;-70
2021/12/21 11:19:41;;;;;;;;;;;1.70;92.00;;;;;;5090448;28;19919;-71
2021/12/21 11:22:07;;;;;;;;;;;1.70;92.10;;;;;;5092094;28;20288;-70
2021/12/21 11:24:37;;;;;;;;;;;1.70;92.10;;;;;;5091993;28;20332;-70
2021/12/21 11:27:03;;;;;;;;;;;1.70;92.20;;;;;;5093706;28;20008;-70
2021/12/21 11:29:30;;;;;;;;;;;1.70;92.30;;;;;;5093887;28;20132;-70
2021/12/21 11:31:57;;;;;;;;;;;1.70;92.20;;;;;;5097535;28;19912;-70
2021/12/21 11:34:31;;;;;;;;;;;1.70;92.30;;;;;;5095471;28;20436;-70
2021/12/21 11:39:41;;;;;;;;;;;1.70;92.40;;;;;;5089995;28;19965;-70
2021/12/21 11:42:09;;;;;;;;;;;1.70;92.50;;;;;;5083772;28;19920;-70
2021/12/21 11:44:35;;;;;;;;;;;1.70;92.50;;;;;;5095499;28;20061;-70
2021/12/21 11:47:01;;;;;;;;;;;1.70;92.40;;;;;;5099050;28;19994;-70
2021/12/21 11:49:54;;;;;;;;;;;1.70;92.50;;;;;;5097722;28;19911;-70
2021/12/21 11:52:21;;;;;;;;;;;1.70;92.50;;;;;;5096291;28;20285;-70
2021/12/21 11:54:51;;;;;;;;;;;1.70;92.60;;;;;;5108191;27;19908;-70
2021/12/21 11:57:18;;;;;;;;;;;1.70;92.60;;;;;;5097323;28;19920;-70
2021/12/21 11:59:47;;;;;;;;;;;1.70;92.60;;;;;;5091726;28;20266;-70
2021/12/21 12:02:13;;;;;;;;;;;1.70;92.80;;;;;;5093971;28;20434;-70
2021/12/21 12:04:39;;;;;;;;;;;1.60;92.80;;;;;;5091425;28;19912;-70
2021/12/21 12:07:15;;;;;;;;;;;1.70;92.90;;;;;;5098188;28;19912;-70
2021/12/21 12:09:41;;;;;;;;;;;1.70;92.80;;;;;;5088081;28;19912;-70
2021/12/21 12:12:08;;;;;;;;;;;1.70;93.00;;;;;;5085114;28;20226;-70
2021/12/21 12:14:36;;;;;;;;;;;1.60;93.00;;;;;;5091201;28;19912;-70
2021/12/21 12:17:09;;;;;;;;;;;1.70;93.00;;;;;;5086087;28;19916;-70
2021/12/21 12:19:37;;;;;;;;;;;1.70;93.00;;;;;;5104923;28;19966;-70
2021/12/21 12:22:04;;;;;;;;;;;1.70;93.10;;;;;;5099669;28;20399;-70
2021/12/21 12:24:34;;;;;;;;;;;1.70;93.20;;;;;;5083463;28;20423;-70
2021/12/21 12:27:02;;;;;;;;;;;1.60;93.40;;;;;;5091912;28;19916;-70
2021/12/21 12:29:28;;;;;;;;;;;1.60;93.40;;;;;;5093157;28;20000;-70
2021/12/21 12:32:05;;;;;;;;;;;1.60;93.50;;;;;;5092197;28;19998;-71
2021/12/21 12:34:32;;;;;;;;;;;1.60;93.50;;;;;;5091269;28;19908;-70
2021/12/21 12:36:58;;;;;;;;;;;1.60;93.50;;;;;;5093370;28;20466;-70
2021/12/21 12:39:30;;;;;;;;;;;1.60;93.70;;;;;;5091521;28;20361;-70
2021/12/21 12:42:09;;;;;;;;;;;1.70;93.70;;;;;;5085280;28;19934;-70
2021/12/21 12:44:36;;;;;;;;;;;1.70;93.70;;;;;;5102752;28;20322;-70
2021/12/21 12:47:03;;;;;;;;;;;1.70;93.70;;;;;;5097304;28;19916;-70
2021/12/21 12:49:30;;;;;;;;;;;1.70;93.70;;;;;;5093374;28;19908;-71
2021/12/21 12:52:16;;;;;;;;;;;1.60;93.80;;;;;;5090997;28;19919;-70
2021/12/21 12:54:44;;;;;;;;;;;1.70;93.90;;;;;;5104751;28;19919;-70
2021/12/21 12:57:10;;;;;;;;;;;1.70;93.80;;;;;;5088625;28;20345;-70
2021/12/21 12:59:36;;;;;;;;;;;1.70;93.80;;;;;;5083457;28;20318;-70
2021/12/21 13:02:06;;;;;;;;;;;1.70;94.10;;;;;;5083914;28;19916;-70
2021/12/21 13:04:32;;;;;;;;;;;1.70;93.80;;;;;;5101095;28;19965;-70
2021/12/21 13:06:58;;;;;;;;;;;1.70;93.90;;;;;;5086428;28;20007;-70
2021/12/21 13:09:24;;;;;;;;;;;1.80;93.90;;;;;;5096042;28;19991;-70
2021/12/21 13:11:49;;;;;;;;;;;1.80;93.90;;;;;;5094083;28;19923;-70
2021/12/21 13:14:16;;;;;;;;;;;1.70;93.90;;;;;;5087516;28;20325;-70
2021/12/21 13:16:42;;;;;;;;;;;1.80;94.00;;;;;;5099083;28;19911;-70
2021/12/21 13:19:11;;;;;;;;;;;1.70;94.00;;;;;;5097923;28;20264;-70
2021/12/21 13:21:40;;;;;;;;;;;1.80;94.00;;;;;;5098648;28;19920;-70
2021/12/21 13:24:06;;;;;;;;;;;1.80;94.00;;;;;;5099310;28;19945;-70
2021/12/21 13:26:34;;;;;;;;;;;1.80;94.00;;;;;;5089797;28;19911;-70
2021/12/21 13:29:00;;;;;;;;;;;1.80;94.00;;;;;;5094948;28;19947;-71
2021/12/21 13:31:27;;;;;;;;;;;1.80;94.10;;;;;;5096066;28;20361;-70
2021/12/21 13:33:55;;;;;;;;;;;1.80;94.10;;;;;;5092926;28;19920;-70
2021/12/21 13:36:30;;;;;;;;;;;1.80;94.10;;;;;;5100004;28;20014;-70
2021/12/21 13:38:56;;;;;;;;;;;1.80;94.10;;;;;;5090606;28;20040;-70
2021/12/21 13:41:22;;;;;;;;;;;1.80;94.10;;;;;;5096861;28;19961;-70
2021/12/21 13:44:05;;;;;;;;;;;1.80;94.10;;;;;;5089156;28;19916;-70
2021/12/21 13:46:34;;;;;;;;;;;1.80;94.10;;;;;;5099726;28;19986;-70
2021/12/21 13:48:59;;;;;;;;;;;1.80;94.10;;;;;;5081744;28;20289;-70
2021/12/21 13:51:25;;;;;;;;;;;1.80;94.10;;;;;;5091229;28;19998;-70
2021/12/21 13:53:52;;;;;;;;;;;1.80;94.20;;;;;;5082655;28;19913;-70
2021/12/21 13:56:19;;;;;;;;;;;1.80;94.20;;;;;;5084597;28;19919;-70
2021/12/21 13:58:45;;;;;;;;;;;1.80;94.20;;;;;;5085295;28;20344;-70
2021/12/21 14:01:21;;;;;;;;;;;1.80;94.20;;;;;;5086849;28;19928;-70
2021/12/21 14:03:53;;;;;;;;;;;1.90;94.20;;;;;;5088578;28;19924;-70
2021/12/21 14:06:22;;;;;;;;;;;1.90;94.20;;;;;;5088152;28;19912;-70
2021/12/21 14:08:49;;;;;;;;;;;1.80;94.20;;;;;;5099909;28;20222;-71
2021/12/21 14:11:15;;;;;;;;;;;1.80;94.10;;;;;;5084166;28;19924;-70
2021/12/21 14:13:46;;;;;;;;;;;1.90;94.20;;;;;;5090126;28;19912;-70
2021/12/21 14:16:17;;;;;;;;;;;1.80;94.20;;;;;;5086957;28;20655;-70
2021/12/21 14:18:45;;;;;;;;;;;1.90;94.30;;;;;;5083484;28;20411;-70
2021/12/21 14:21:12;;;;;;;;;;;1.80;94.20;;;;;;5082088;28;19923;-70
2021/12/21 14:23:42;;;;;;;;;;;1.80;94.20;;;;;;5092834;28;19916;-70
2021/12/21 14:26:10;;;;;;;;;;;1.80;94.30;;;;;;5093891;28;19916;-71
2021/12/21 14:28:56;;;;;;;;;;;1.80;94.20;;;;;;5090542;28;19916;-70
2021/12/21 14:31:23;;;;;;;;;;;1.80;94.30;;;;;;5086596;28;19951;-70
2021/12/21 14:33:50;;;;;;;;;;;1.80;94.30;;;;;;5091292;28;19908;-70
2021/12/21 14:36:16;;;;;;;;;;;1.80;94.30;;;;;;5086560;28;19969;-70
2021/12/21 14:39:11;;;;;;;;;;;1.80;94.30;;;;;;5090003;28;19908;-70
2021/12/21 14:41:39;;;;;;;;;;;1.80;94.30;;;;;;5076911;28;19984;-70
2021/12/21 14:44:04;;;;;;;;;;;1.80;94.30;;;;;;5090029;28;19938;-70
2021/12/21 14:46:30;;;;;;;;;;;1.80;94.30;;;;;;5085349;28;20381;-71
2021/12/21 14:49:00;;;;;;;;;;;1.80;94.30;;;;;;5090407;28;19916;-70
2021/12/21 14:51:25;;;;;;;;;;;1.80;94.30;;;;;;5089335;28;19912;-70
2021/12/21 14:54:02;;;;;;;;;;;1.80;94.20;;;;;;5088157;28;19916;-70
2021/12/21 14:56:29;;;;;;;;;;;1.80;94.20;;;;;;5084745;28;19916;-70
2021/12/21 14:58:56;;;;;;;;;;;1.80;94.30;;;;;;5091713;28;19998;-70
2021/12/21 15:01:21;;;;;;;;;;;1.80;94.30;;;;;;5093251;28;19912;-70
2021/12/21 15:03:47;;;;;;;;;;;1.70;94.30;;;;;;5084369;28;19916;-70
2021/12/21 15:06:12;;;;;;;;;;;1.70;94.20;;;;;;5089048;28;19912;-70
2021/12/21 15:08:38;;;;;;;;;;;1.70;94.30;;;;;;5093105;28;19912;-70
2021/12/21 15:11:03;;;;;;;;;;;1.70;94.20;;;;;;5091499;28;20043;-70
2021/12/21 15:13:29;;;;;;;;;;;1.70;94.30;;;;;;5098632;28;19998;-71
2021/12/21 15:15:54;;;;;;;;;;;1.70;94.20;;;;;;5086820;28;19916;-70
2021/12/21 15:18:20;;;;;;;;;;;1.70;94.30;;;;;;5096674;28;19911;-70
2021/12/21 15:20:45;;;;;;;;;;;1.70;94.20;;;;;;5094050;28;19958;-70
2021/12/21 15:23:11;;;;;;;;;;;1.60;94.20;;;;;;5095178;28;19922;-70
2021/12/21 15:25:38;;;;;;;;;;;1.70;94.30;;;;;;5098144;28;20261;-70
2021/12/21 15:28:04;;;;;;;;;;;1.70;94.30;;;;;;5094636;28;19912;-70
2021/12/21 15:30:30;;;;;;;;;;;1.60;94.30;;;;;;5088789;28;20376;-70